Time;durP1;ratioP1;P1;durP2;ratioP2;P2;SDS_P1;SDS_P2;PMS_P1;PMS_P2;Temp;Humidity;BMP_temperature;BMP_pressure;BME280_temperature;BME280_humidity;BME280_pressure;Samples;Min_cycle;Max_cycle;Signal;HPM_P1;HPM_P2
2023/03/12 00:04:33;;;;;;;9.60;6.15;;;;;;;;;;10366708;28;20806;-85
2023/03/12 00:09:36;;;;;;;7.57;5.67;;;;;;;;;;10364696;28;20508;-84
2023/03/12 00:14:38;;;;;;;8.00;5.18;;;;;;;;;;10362718;28;20423;-84
2023/03/12 00:19:41;;;;;;;7.35;5.18;;;;;;;;;;10367200;28;20423;-85
2023/03/12 00:24:43;;;;;;;6.30;5.13;;;;;;;;;;10366162;28;20422;-85
2023/03/12 00:29:45;;;;;;;7.15;4.78;;;;;;;;;;10357663;28;20450;-86
2023/03/12 00:34:52;;;;;;;7.80;4.63;;;;;;;;;;10363889;28;20426;-85
2023/03/12 00:39:54;;;;;;;6.40;4.00;;;;;;;;;;10369568;28;20950;-85
2023/03/12 00:44:56;;;;;;;6.72;4.05;;;;;;;;;;10374248;28;20415;-85
2023/03/12 00:49:59;;;;;;;5.28;3.72;;;;;;;;;;10374099;28;20888;-85
2023/03/12 00:55:01;;;;;;;4.88;3.45;;;;;;;;;;10373755;28;20430;-84
2023/03/12 01:00:06;;;;;;;4.68;3.10;;;;;;;;;;10369093;28;20415;-84
2023/03/12 01:05:13;;;;;;;4.55;2.90;;;;;;;;;;10370102;28;20414;-85
2023/03/12 01:10:18;;;;;;;3.70;2.75;;;;;;;;;;10374182;28;20415;-85
2023/03/12 01:15:20;;;;;;;3.08;2.58;;;;;;;;;;10373113;28;20423;-85
2023/03/12 01:20:23;;;;;;;4.43;2.77;;;;;;;;;;10373434;28;20403;-85
2023/03/12 01:25:25;;;;;;;3.03;2.42;;;;;;;;;;10372113;28;20422;-84
2023/03/12 01:30:27;;;;;;;5.68;3.03;;;;;;;;;;10371095;28;20403;-85
2023/03/12 01:35:30;;;;;;;4.35;2.38;;;;;;;;;;10372979;28;20431;-85
2023/03/12 01:40:34;;;;;;;3.17;2.40;;;;;;;;;;10372192;28;20477;-84
2023/03/12 01:46:03;;;;;;;2.97;2.40;;;;;;;;;;10371726;28;20411;-85
2023/03/12 01:51:10;;;;;;;3.28;2.50;;;;;;;;;;10366540;28;20419;-85
2023/03/12 01:56:13;;;;;;;3.45;2.40;;;;;;;;;;10371319;28;20431;-84
2023/03/12 02:01:16;;;;;;;3.13;2.30;;;;;;;;;;10371348;28;20490;-84
2023/03/12 02:06:23;;;;;;;2.58;2.33;;;;;;;;;;10370639;28;20927;-84
2023/03/12 02:11:25;;;;;;;3.17;2.30;;;;;;;;;;10370516;28;20422;-84
2023/03/12 02:16:27;;;;;;;3.90;2.40;;;;;;;;;;10371251;28;20431;-84
2023/03/12 02:21:34;;;;;;;3.67;2.10;;;;;;;;;;10371205;28;20465;-84
2023/03/12 02:26:39;;;;;;;2.35;2.10;;;;;;;;;;10370839;28;20458;-84
2023/03/12 02:31:45;;;;;;;2.60;2.20;;;;;;;;;;10370861;28;20418;-84
2023/03/12 02:36:48;;;;;;;2.60;2.08;;;;;;;;;;10366897;28;20423;-84
2023/03/12 02:41:54;;;;;;;2.25;1.95;;;;;;;;;;10377755;28;20895;-84
2023/03/12 02:46:58;;;;;;;2.63;2.33;;;;;;;;;;10390586;28;20413;-84
2023/03/12 02:52:01;;;;;;;2.67;1.92;;;;;;;;;;10380234;28;20483;-83
2023/03/12 02:57:04;;;;;;;2.22;1.70;;;;;;;;;;10372618;28;20426;-83
2023/03/12 03:02:08;;;;;;;2.93;1.87;;;;;;;;;;10374514;28;20505;-83
2023/03/12 03:07:10;;;;;;;2.38;2.05;;;;;;;;;;10376842;28;20405;-83
2023/03/12 03:12:13;;;;;;;2.50;2.00;;;;;;;;;;10375069;28;20413;-82
2023/03/12 03:17:15;;;;;;;2.90;2.30;;;;;;;;;;10372879;28;20414;-81
2023/03/12 03:22:17;;;;;;;2.70;2.20;;;;;;;;;;10376737;28;20442;-81
2023/03/12 03:27:20;;;;;;;3.58;2.47;;;;;;;;;;10375876;28;20424;-81
2023/03/12 03:32:22;;;;;;;3.05;2.20;;;;;;;;;;10377283;28;20757;-82
2023/03/12 03:37:27;;;;;;;3.57;2.40;;;;;;;;;;10376281;28;20421;-82
2023/03/12 03:42:30;;;;;;;3.53;2.10;;;;;;;;;;10370285;28;20418;-83
2023/03/12 03:47:32;;;;;;;2.88;2.22;;;;;;;;;;10371427;28;20423;-83
2023/03/12 03:52:34;;;;;;;2.70;2.00;;;;;;;;;;10372716;28;20454;-83
2023/03/12 03:57:37;;;;;;;3.60;2.20;;;;;;;;;;10371915;28;20937;-83
2023/03/12 04:02:39;;;;;;;3.03;2.20;;;;;;;;;;10379514;28;20429;-81
2023/03/12 04:07:42;;;;;;;2.10;1.90;;;;;;;;;;10384108;28;20431;-83
2023/03/12 04:12:45;;;;;;;2.78;2.20;;;;;;;;;;10375184;28;20747;-84
2023/03/12 04:17:47;;;;;;;2.90;2.15;;;;;;;;;;10367608;28;20433;-81
2023/03/12 04:22:49;;;;;;;2.40;2.10;;;;;;;;;;10364668;28;20410;-83
2023/03/12 04:27:52;;;;;;;3.92;2.42;;;;;;;;;;10361452;28;20422;-81
2023/03/12 04:32:54;;;;;;;3.03;2.42;;;;;;;;;;10366058;28;20548;-83
2023/03/12 04:37:56;;;;;;;4.65;2.47;;;;;;;;;;10362511;28;20430;-82
2023/03/12 04:43:00;;;;;;;3.15;2.50;;;;;;;;;;10360648;28;20455;-83
2023/03/12 04:48:03;;;;;;;4.05;2.50;;;;;;;;;;10365627;28;20811;-83
2023/03/12 04:53:05;;;;;;;3.00;2.60;;;;;;;;;;10366492;28;21163;-83
2023/03/12 04:58:08;;;;;;;3.80;2.60;;;;;;;;;;10364805;28;20473;-83
2023/03/12 05:03:10;;;;;;;4.17;2.40;;;;;;;;;;10365856;28;20438;-83
2023/03/12 05:08:12;;;;;;;3.08;2.58;;;;;;;;;;10363592;28;20458;-83
2023/03/12 05:13:16;;;;;;;4.03;3.00;;;;;;;;;;10364668;28;20592;-84
2023/03/12 05:23:25;;;;;;;3.20;2.50;;;;;;;;;;10374940;28;20405;-83
2023/03/12 05:28:29;;;;;;;3.45;2.40;;;;;;;;;;10412056;28;20512;-83
2023/03/12 05:33:30;;;;;;;3.42;2.60;;;;;;;;;;10410184;28;20405;-82
2023/03/12 05:38:32;;;;;;;3.63;2.53;;;;;;;;;;10413006;28;20429;-84
2023/03/12 05:43:36;;;;;;;3.30;2.30;;;;;;;;;;10412655;28;20451;-83
2023/03/12 05:48:38;;;;;;;3.22;2.10;;;;;;;;;;10412810;28;20472;-83
2023/03/12 05:53:40;;;;;;;3.42;2.75;;;;;;;;;;10412150;28;20405;-83
2023/03/12 05:58:44;;;;;;;3.05;2.70;;;;;;;;;;10412160;28;20421;-83
2023/03/12 06:03:46;;;;;;;2.53;2.33;;;;;;;;;;10411991;28;20405;-83
2023/03/12 06:08:48;;;;;;;2.47;2.10;;;;;;;;;;10412696;28;20763;-83
2023/03/12 06:13:51;;;;;;;3.50;2.42;;;;;;;;;;10411035;28;20417;-81
2023/03/12 06:18:54;;;;;;;2.60;1.97;;;;;;;;;;10411453;28;20857;-83
2023/03/12 06:23:56;;;;;;;3.40;2.30;;;;;;;;;;10410766;28;20421;-83
2023/03/12 06:29:00;;;;;;;2.88;1.90;;;;;;;;;;10409543;28;20409;-83
2023/03/12 06:34:01;;;;;;;3.85;1.80;;;;;;;;;;10411649;28;20409;-83
2023/03/12 06:39:07;;;;;;;2.22;1.70;;;;;;;;;;10407155;28;20433;-83
2023/03/12 06:44:10;;;;;;;2.67;1.77;;;;;;;;;;10409235;28;20412;-83
2023/03/12 06:49:12;;;;;;;2.30;1.63;;;;;;;;;;10410086;28;20413;-83
2023/03/12 06:54:14;;;;;;;2.42;1.67;;;;;;;;;;10410292;28;21131;-84
2023/03/12 06:59:17;;;;;;;1.50;1.40;;;;;;;;;;10408336;28;20523;-83
2023/03/12 07:04:19;;;;;;;1.88;1.40;;;;;;;;;;10410325;28;20440;-84
2023/03/12 07:09:21;;;;;;;2.92;1.80;;;;;;;;;;10408835;28;20409;-83
2023/03/12 07:14:25;;;;;;;3.95;1.70;;;;;;;;;;10408396;28;20413;-83
2023/03/12 07:19:28;;;;;;;3.13;2.08;;;;;;;;;;10409381;28;20781;-83
2023/03/12 07:24:30;;;;;;;2.65;1.70;;;;;;;;;;10406280;28;20492;-83
2023/03/12 07:29:33;;;;;;;4.37;2.10;;;;;;;;;;10405928;28;20892;-83
2023/03/12 07:34:35;;;;;;;3.57;1.80;;;;;;;;;;10408504;28;20405;-83
2023/03/12 07:39:37;;;;;;;4.68;1.65;;;;;;;;;;10408204;28;21073;-83
2023/03/12 07:44:41;;;;;;;3.92;1.58;;;;;;;;;;10406742;28;20497;-83
2023/03/12 07:49:42;;;;;;;1.95;1.50;;;;;;;;;;10401356;28;20518;-83
2023/03/12 07:54:44;;;;;;;1.90;1.47;;;;;;;;;;10395911;28;20412;-82
2023/03/12 07:59:48;;;;;;;1.90;1.40;;;;;;;;;;10390567;28;20818;-83
2023/03/12 08:04:50;;;;;;;2.10;1.60;;;;;;;;;;10394073;28;20479;-83
2023/03/12 08:09:51;;;;;;;1.92;1.50;;;;;;;;;;10397740;28;20401;-84
2023/03/12 08:14:55;;;;;;;2.10;1.70;;;;;;;;;;10396336;28;20494;-82
2023/03/12 08:19:56;;;;;;;3.33;1.60;;;;;;;;;;10395864;28;20426;-82
2023/03/12 08:24:58;;;;;;;3.53;1.75;;;;;;;;;;10397061;28;20768;-81
2023/03/12 08:30:02;;;;;;;1.85;1.63;;;;;;;;;;10400495;28;20475;-82
2023/03/12 08:35:05;;;;;;;2.30;2.03;;;;;;;;;;10402487;28;20420;-82
2023/03/12 08:40:11;;;;;;;3.10;2.27;;;;;;;;;;10400827;28;22063;-82
2023/03/12 08:45:15;;;;;;;4.00;2.20;;;;;;;;;;10401815;28;20413;-83
2023/03/12 08:50:19;;;;;;;2.35;1.70;;;;;;;;;;10400274;28;20500;-83
2023/03/12 08:55:20;;;;;;;1.98;1.60;;;;;;;;;;10402127;28;20409;-83
2023/03/12 09:00:24;;;;;;;1.60;1.50;;;;;;;;;;10402599;28;20425;-82
2023/03/12 09:05:28;;;;;;;2.70;1.63;;;;;;;;;;10411276;28;20408;-83
2023/03/12 09:10:30;;;;;;;2.00;1.60;;;;;;;;;;10410560;28;20413;-83
2023/03/12 09:15:34;;;;;;;2.10;1.75;;;;;;;;;;10408958;28;20942;-83
2023/03/12 09:20:36;;;;;;;2.27;1.90;;;;;;;;;;10410947;28;20496;-83
2023/03/12 09:25:37;;;;;;;2.83;1.70;;;;;;;;;;10393671;23;20426;-83
2023/03/12 09:30:41;;;;;;;2.90;1.90;;;;;;;;;;10368329;28;20438;-82
2023/03/12 09:35:43;;;;;;;2.17;1.70;;;;;;;;;;10361331;28;20750;-82
2023/03/12 09:40:47;;;;;;;2.25;1.90;;;;;;;;;;10364721;28;20513;-82
2023/03/12 09:45:51;;;;;;;2.22;1.67;;;;;;;;;;10361656;28;20407;-83
2023/03/12 09:50:54;;;;;;;2.08;1.80;;;;;;;;;;10368346;28;20438;-84
2023/03/12 09:55:58;;;;;;;1.75;1.60;;;;;;;;;;10364987;28;20481;-85
2023/03/12 10:01:16;;;;;;;3.28;1.85;;;;;;;;;;10367131;28;20407;-85
2023/03/12 10:06:20;;;;;;;2.60;1.73;;;;;;;;;;10360897;28;20410;-84
2023/03/12 10:11:32;;;;;;;1.92;1.60;;;;;;;;;;10362357;28;20407;-84
2023/03/12 10:16:47;;;;;;;2.40;1.80;;;;;;;;;;10367586;28;20434;-86
2023/03/12 10:21:55;;;;;;;3.47;2.30;;;;;;;;;;10362766;28;20441;-83
2023/03/12 10:27:00;;;;;;;3.03;2.00;;;;;;;;;;10364644;28;20494;-81
2023/03/12 10:32:07;;;;;;;3.00;2.30;;;;;;;;;;10367194;28;20409;-84
2023/03/12 10:37:17;;;;;;;2.13;1.77;;;;;;;;;;10365019;28;20507;-82
2023/03/12 10:42:21;;;;;;;2.72;2.25;;;;;;;;;;10361798;28;20455;-83
2023/03/12 10:47:35;;;;;;;3.17;2.20;;;;;;;;;;10362759;28;20422;-85
2023/03/12 10:52:36;;;;;;;3.67;2.60;;;;;;;;;;10362784;28;20941;-85
2023/03/12 10:57:40;;;;;;;3.53;2.38;;;;;;;;;;10358226;28;20859;-87
2023/03/12 11:02:45;;;;;;;2.30;2.00;;;;;;;;;;10360599;28;20514;-85
2023/03/12 11:07:47;;;;;;;2.10;1.90;;;;;;;;;;10357971;28;20409;-83
2023/03/12 11:13:04;;;;;;;2.90;1.73;;;;;;;;;;10355997;28;20518;-85
2023/03/12 11:18:35;;;;;;;2.40;1.90;;;;;;;;;;10354402;28;20415;-85
2023/03/12 11:23:41;;;;;;;2.60;1.83;;;;;;;;;;10354166;28;20427;-86
2023/03/12 11:28:46;;;;;;;2.87;1.90;;;;;;;;;;10353398;28;20423;-88
2023/03/12 11:33:48;;;;;;;2.75;1.95;;;;;;;;;;10360274;28;20427;-86
2023/03/12 11:39:03;;;;;;;2.80;1.80;;;;;;;;;;10356062;28;20423;-86
2023/03/12 11:44:21;;;;;;;2.97;2.20;;;;;;;;;;10350442;28;20410;-86
2023/03/12 11:49:39;;;;;;;2.67;2.20;;;;;;;;;;10354522;28;20405;-86
2023/03/12 11:55:16;;;;;;;3.30;2.35;;;;;;;;;;10352321;28;20407;-86
2023/03/12 12:00:25;;;;;;;2.30;2.10;;;;;;;;;;10341281;28;20506;-85
2023/03/12 12:05:35;;;;;;;3.63;2.37;;;;;;;;;;10354558;28;20403;-86
2023/03/12 12:10:46;;;;;;;3.00;2.17;;;;;;;;;;10352192;28;20517;-86
2023/03/12 12:15:58;;;;;;;3.47;2.10;;;;;;;;;;10352703;28;20517;-85
2023/03/12 12:21:06;;;;;;;2.63;2.35;;;;;;;;;;10348766;28;20845;-86
2023/03/12 12:26:12;;;;;;;3.95;2.28;;;;;;;;;;10355554;28;20454;-85
2023/03/12 12:31:27;;;;;;;3.00;2.20;;;;;;;;;;10353978;28;20422;-85
2023/03/12 12:36:34;;;;;;;2.45;2.10;;;;;;;;;;10353573;28;20834;-83
2023/03/12 12:41:41;;;;;;;2.78;2.13;;;;;;;;;;10352508;28;20420;-85
2023/03/12 12:46:50;;;;;;;3.80;2.30;;;;;;;;;;10353130;28;20414;-84
2023/03/12 12:52:01;;;;;;;2.33;2.10;;;;;;;;;;10354130;28;20411;-85
2023/03/12 12:57:11;;;;;;;3.30;2.40;;;;;;;;;;10357099;28;20419;-84
2023/03/12 13:02:17;;;;;;;3.17;2.25;;;;;;;;;;10360648;28;20477;-84
2023/03/12 13:07:32;;;;;;;3.17;2.20;;;;;;;;;;10358333;28;20955;-85
2023/03/12 13:12:43;;;;;;;2.85;2.20;;;;;;;;;;10359218;28;20414;-85
2023/03/12 13:18:07;;;;;;;2.50;2.30;;;;;;;;;;10363959;28;20426;-88
2023/03/12 13:23:25;;;;;;;4.47;2.40;;;;;;;;;;10357124;28;20415;-85
2023/03/12 13:28:39;;;;;;;2.40;2.20;;;;;;;;;;10358220;28;20411;-85
2023/03/12 13:33:44;;;;;;;2.97;2.23;;;;;;;;;;10352820;28;20505;-86
2023/03/12 13:38:54;;;;;;;2.67;2.37;;;;;;;;;;10359333;28;20427;-86
2023/03/12 13:43:58;;;;;;;2.40;2.20;;;;;;;;;;10358964;28;20809;-86
2023/03/12 13:49:03;;;;;;;3.67;2.40;;;;;;;;;;10361841;28;20924;-87
2023/03/12 13:54:05;;;;;;;4.47;3.00;;;;;;;;;;10363541;28;20417;-88
2023/03/12 13:59:16;;;;;;;2.80;2.45;;;;;;;;;;10361451;28;20445;-89
2023/03/12 14:04:22;;;;;;;3.20;2.60;;;;;;;;;;10361756;28;20406;-88
2023/03/12 14:09:33;;;;;;;2.78;2.50;;;;;;;;;;10366102;28;20415;-88
2023/03/12 14:15:00;;;;;;;3.07;2.30;;;;;;;;;;10375613;28;20446;-88
2023/03/12 14:20:10;;;;;;;3.83;2.67;;;;;;;;;;10360892;28;20431;-85
2023/03/12 14:25:21;;;;;;;3.17;2.60;;;;;;;;;;10366100;28;20413;-84
2023/03/12 14:30:33;;;;;;;2.60;2.40;;;;;;;;;;10369464;28;20407;-85
2023/03/12 14:35:41;;;;;;;3.25;2.40;;;;;;;;;;10363543;28;20411;-86
2023/03/12 14:40:47;;;;;;;3.80;2.60;;;;;;;;;;10369502;28;20437;-84
2023/03/12 14:45:54;;;;;;;4.30;2.65;;;;;;;;;;10361429;28;20411;-85
2023/03/12 14:50:57;;;;;;;2.58;2.30;;;;;;;;;;10361400;28;20494;-85
2023/03/12 14:56:00;;;;;;;2.70;2.40;;;;;;;;;;10359076;28;20422;-87
2023/03/12 15:01:06;;;;;;;3.70;2.60;;;;;;;;;;10363615;28;20509;-86
2023/03/12 15:06:17;;;;;;;4.63;3.00;;;;;;;;;;10366464;28;20415;-86
2023/03/12 15:11:24;;;;;;;3.78;2.70;;;;;;;;;;10360662;28;20417;-86
2023/03/12 15:16:27;;;;;;;3.77;2.90;;;;;;;;;;10365451;28;20407;-86
2023/03/12 15:21:31;;;;;;;7.13;2.80;;;;;;;;;;10364115;28;20427;-82
2023/03/12 15:26:36;;;;;;;3.40;2.53;;;;;;;;;;10362889;28;20495;-79
2023/03/12 15:31:44;;;;;;;3.83;2.40;;;;;;;;;;10358451;28;20495;-82
2023/03/12 15:36:47;;;;;;;2.22;1.80;;;;;;;;;;10359847;28;20403;-86
2023/03/12 15:41:50;;;;;;;3.38;2.22;;;;;;;;;;10357737;28;20909;-87
2023/03/12 15:46:56;;;;;;;3.00;2.13;;;;;;;;;;10361285;28;20411;-85
2023/03/12 15:52:03;;;;;;;4.53;2.57;;;;;;;;;;10360508;28;20462;-85
2023/03/12 15:57:19;;;;;;;3.30;2.30;;;;;;;;;;10353094;28;20439;-85
2023/03/12 16:02:36;;;;;;;2.60;2.10;;;;;;;;;;10355469;28;20426;-85
2023/03/12 16:07:39;;;;;;;2.40;1.90;;;;;;;;;;10356058;28;20489;-86
2023/03/12 16:12:41;;;;;;;4.78;1.90;;;;;;;;;;10358025;28;20415;-86
2023/03/12 16:17:45;;;;;;;2.90;1.87;;;;;;;;;;10358530;28;20422;-86
2023/03/12 16:22:46;;;;;;;3.47;2.30;;;;;;;;;;10358146;28;20443;-86
2023/03/12 16:27:51;;;;;;;4.47;2.75;;;;;;;;;;10354845;28;20545;-85
2023/03/12 16:32:54;;;;;;;2.53;1.70;;;;;;;;;;10354756;28;20773;-85
2023/03/12 16:37:56;;;;;;;2.10;1.75;;;;;;;;;;10350603;28;20502;-85
2023/03/12 16:43:01;;;;;;;2.67;1.77;;;;;;;;;;10357836;28;20483;-85
2023/03/12 16:48:06;;;;;;;3.03;1.80;;;;;;;;;;10356659;28;20508;-79
2023/03/12 16:53:11;;;;;;;2.53;1.63;;;;;;;;;;10358544;28;20407;-83
2023/03/12 16:58:18;;;;;;;2.67;1.80;;;;;;;;;;10361161;28;20419;-83
2023/03/12 17:03:29;;;;;;;5.18;3.70;;;;;;;;;;10357802;28;20434;-83
2023/03/12 17:08:31;;;;;;;4.97;3.57;;;;;;;;;;10354011;28;20485;-82
2023/03/12 17:13:36;;;;;;;6.32;3.33;;;;;;;;;;10360372;28;20442;-82
2023/03/12 17:18:40;;;;;;;4.35;2.70;;;;;;;;;;10359057;28;20427;-85
2023/03/12 17:23:42;;;;;;;4.93;2.78;;;;;;;;;;10366518;28;20413;-82
2023/03/12 17:28:44;;;;;;;3.58;2.60;;;;;;;;;;10366394;28;20465;-84
2023/03/12 17:33:47;;;;;;;3.38;2.70;;;;;;;;;;10365259;28;20414;-85
2023/03/12 17:38:49;;;;;;;6.72;4.05;;;;;;;;;;10366922;28;20948;-82
2023/03/12 17:43:51;;;;;;;9.73;4.57;;;;;;;;;;10366906;28;20972;-85
2023/03/12 17:48:54;;;;;;;6.53;4.45;;;;;;;;;;10363033;28;20513;-86
2023/03/12 17:53:56;;;;;;;6.38;4.43;;;;;;;;;;10355879;28;20419;-85
2023/03/12 17:58:58;;;;;;;6.35;4.38;;;;;;;;;;10358889;28;20427;-85
2023/03/12 18:04:01;;;;;;;7.65;4.70;;;;;;;;;;10348504;28;20514;-85
2023/03/12 18:09:03;;;;;;;12.53;7.50;;;;;;;;;;10344130;28;20450;-85
2023/03/12 18:14:05;;;;;;;13.02;7.25;;;;;;;;;;10348529;28;20415;-83
2023/03/12 18:19:08;;;;;;;12.25;7.95;;;;;;;;;;10358245;28;20423;-84
2023/03/12 18:24:10;;;;;;;15.27;9.80;;;;;;;;;;10359393;28;20481;-85
2023/03/12 18:29:12;;;;;;;16.38;10.90;;;;;;;;;;10360016;28;20419;-83
2023/03/12 18:34:16;;;;;;;15.95;9.32;;;;;;;;;;10349818;28;21212;-84
2023/03/12 18:39:17;;;;;;;17.35;9.35;;;;;;;;;;10352376;28;20427;-84
2023/03/12 18:44:19;;;;;;;13.95;8.27;;;;;;;;;;10354245;28;20992;-85
2023/03/12 18:49:23;;;;;;;12.77;8.50;;;;;;;;;;10355179;28;20403;-84
2023/03/12 18:54:25;;;;;;;11.23;8.05;;;;;;;;;;10354461;28;20422;-85
2023/03/12 18:59:28;;;;;;;17.00;11.57;;;;;;;;;;10358934;28;20425;-85
2023/03/12 19:04:31;;;;;;;14.38;10.73;;;;;;;;;;10352750;28;20417;-86
2023/03/12 19:09:33;;;;;;;13.63;8.75;;;;;;;;;;10353978;28;20481;-85
2023/03/12 19:14:35;;;;;;;12.10;6.87;;;;;;;;;;10357417;28;20442;-87
2023/03/12 19:19:39;;;;;;;11.95;7.03;;;;;;;;;;10352354;28;20458;-86
2023/03/12 19:24:42;;;;;;;11.60;7.63;;;;;;;;;;10352505;28;20419;-86
2023/03/12 19:29:44;;;;;;;11.32;7.93;;;;;;;;;;10351856;28;20430;-86
2023/03/12 19:34:49;;;;;;;11.60;8.50;;;;;;;;;;10355771;28;20433;-86
2023/03/12 19:45:24;;;;;;;13.43;8.37;;;;;;;;;;10339080;28;20450;-84
2023/03/12 19:50:27;;;;;;;12.05;8.75;;;;;;;;;;10347481;28;20964;-84
2023/03/12 19:55:29;;;;;;;12.23;8.50;;;;;;;;;;10353149;28;20430;-85
2023/03/12 20:00:31;;;;;;;14.70;8.82;;;;;;;;;;10350683;28;20548;-84
2023/03/12 20:05:35;;;;;;;15.10;9.55;;;;;;;;;;10352295;28;20427;-84
2023/03/12 20:10:37;;;;;;;15.95;11.45;;;;;;;;;;10353322;28;20513;-84
2023/03/12 20:15:43;;;;;;;15.38;11.63;;;;;;;;;;10350887;28;20418;-87
2023/03/12 20:20:48;;;;;;;16.45;9.32;;;;;;;;;;10347708;28;20485;-84
2023/03/12 20:25:50;;;;;;;17.45;12.95;;;;;;;;;;10353121;28;20920;-84
2023/03/12 20:30:53;;;;;;;17.05;11.23;;;;;;;;;;10351112;28;20500;-86
2023/03/12 20:35:56;;;;;;;17.10;11.90;;;;;;;;;;10350902;28;20418;-86
2023/03/12 20:40:58;;;;;;;15.27;11.70;;;;;;;;;;10349664;28;20523;-83
2023/03/12 20:46:00;;;;;;;16.70;11.77;;;;;;;;;;10350121;28;20909;-86
2023/03/12 20:51:03;;;;;;;16.42;11.77;;;;;;;;;;10354888;28;21025;-86
2023/03/12 20:56:06;;;;;;;17.38;12.27;;;;;;;;;;10356548;28;20935;-86
2023/03/12 21:01:08;;;;;;;18.60;13.90;;;;;;;;;;10358720;28;20430;-85
2023/03/12 21:06:11;;;;;;;18.83;13.80;;;;;;;;;;10363209;28;20423;-85
2023/03/12 21:11:13;;;;;;;19.43;13.43;;;;;;;;;;10360327;28;20864;-84
2023/03/12 21:16:15;;;;;;;19.27;14.30;;;;;;;;;;10361882;28;20767;-84
2023/03/12 21:21:19;;;;;;;20.77;14.95;;;;;;;;;;10362004;28;20968;-84
2023/03/12 21:26:21;;;;;;;24.27;15.45;;;;;;;;;;10362936;28;20941;-84
2023/03/12 21:31:25;;;;;;;24.83;16.20;;;;;;;;;;10361474;28;20778;-84
2023/03/12 21:36:29;;;;;;;21.90;15.43;;;;;;;;;;10364223;28;20421;-84
2023/03/12 21:41:31;;;;;;;23.60;15.87;;;;;;;;;;10362963;28;20433;-84
2023/03/12 21:46:34;;;;;;;21.73;15.73;;;;;;;;;;10353998;28;20963;-84
2023/03/12 21:51:37;;;;;;;24.83;16.77;;;;;;;;;;10363002;28;20429;-84
2023/03/12 21:56:40;;;;;;;25.10;17.40;;;;;;;;;;10363503;28;20411;-84
2023/03/12 22:01:42;;;;;;;24.20;16.80;;;;;;;;;;10362510;28;20419;-84
2023/03/12 22:06:45;;;;;;;23.35;16.80;;;;;;;;;;10363288;28;20431;-84
2023/03/12 22:11:49;;;;;;;27.02;17.48;;;;;;;;;;10363148;28;22389;-84
2023/03/12 22:16:51;;;;;;;27.07;17.57;;;;;;;;;;10358312;28;20426;-83
2023/03/12 22:21:54;;;;;;;25.67;17.35;;;;;;;;;;10361628;28;20427;-84
2023/03/12 22:26:56;;;;;;;24.88;17.70;;;;;;;;;;10329685;28;20422;-85
2023/03/12 22:31:58;;;;;;;25.92;18.10;;;;;;;;;;10361735;28;20413;-85
2023/03/12 22:37:01;;;;;;;27.90;18.80;;;;;;;;;;10366504;28;20415;-84
2023/03/12 22:42:03;;;;;;;27.40;18.55;;;;;;;;;;10370958;28;20423;-85
2023/03/12 22:47:06;;;;;;;25.13;18.15;;;;;;;;;;10370372;28;20954;-85
2023/03/12 22:52:09;;;;;;;27.80;19.02;;;;;;;;;;10370263;28;20417;-85
2023/03/12 22:57:11;;;;;;;25.25;18.40;;;;;;;;;;10369642;28;20486;-86
2023/03/12 23:02:13;;;;;;;26.20;18.13;;;;;;;;;;10368904;28;20473;-85
2023/03/12 23:07:16;;;;;;;26.37;17.63;;;;;;;;;;10367678;28;20488;-85
2023/03/12 23:12:18;;;;;;;22.73;17.13;;;;;;;;;;10370022;28;21086;-85
2023/03/12 23:17:20;;;;;;;23.48;16.60;;;;;;;;;;10367871;28;20419;-85
2023/03/12 23:22:23;;;;;;;23.83;16.52;;;;;;;;;;10366166;28;20766;-85
2023/03/12 23:27:25;;;;;;;23.05;16.20;;;;;;;;;;10367372;28;20501;-85
2023/03/12 23:32:27;;;;;;;22.80;15.90;;;;;;;;;;10367831;28;20407;-85
2023/03/12 23:37:30;;;;;;;23.93;16.73;;;;;;;;;;10366118;28;20410;-85
2023/03/12 23:42:32;;;;;;;22.45;16.15;;;;;;;;;;10364439;28;20426;-85
2023/03/12 23:47:34;;;;;;;22.10;15.57;;;;;;;;;;10364119;28;20422;-85
2023/03/12 23:52:37;;;;;;;21.83;16.50;;;;;;;;;;10367252;28;20835;-84
2023/03/12 23:57:39;;;;;;;23.77;17.37;;;;;;;;;;10368588;28;20578;-85
